Santo Antonio Da Barra, Brazil
Current Conditions -  °F | °C
As of 5:08 PM on Friday 28 Nov 2014 (Local Time) from SBGO Reporting Station
Light Rain Light Rain  
Wind Chill: 70°   Ceiling: 1300
Heat Index: 70°   Visibility: 6mi
Dew Point: 64°   Wind: 13mph
Humidity: 83%   Direction: 330°NNW
Pressure: 30"   Gusts: NA
Location:  17.57°S, 50.63°W
Report Text: SBGO 281908Z 33011KT 9999 -RA FEW006 BKN013 OVC100 21/18 Q1016
Loading
Personal Weather Stations






























Interactive Weather Map New forecast layout! Learn more

10-Day Weather Forecast

Advertisements
Track Severe Weather on mobile